createdAt,value
2017-09-18T00:01:23.036Z,97593.27
2017-09-18T00:03:51.181Z,97594.55
2017-09-18T00:06:18.681Z,97591.65
2017-09-18T00:08:46.261Z,97593.41
2017-09-18T00:11:16.252Z,97595.10
2017-09-18T00:13:43.774Z,97586.94
2017-09-18T00:16:13.221Z,97589.22
2017-09-18T00:18:49.952Z,97590.27
2017-09-18T00:21:21.924Z,97589.58
2017-09-18T00:23:50.784Z,97595.93
2017-09-18T00:26:30.243Z,97594.31
2017-09-18T00:29:10.705Z,97595.18
2017-09-18T00:34:20.136Z,97580.39
2017-09-18T00:36:47.600Z,97583.78
2017-09-18T00:39:15.096Z,97580.59
2017-09-18T00:41:42.664Z,97576.87
2017-09-18T00:44:10.200Z,97578.52
2017-09-18T00:46:37.691Z,97580.77
2017-09-18T00:49:05.200Z,97572.67
2017-09-18T00:51:32.708Z,97576.48
2017-09-18T00:54:00.189Z,97575.77
2017-09-18T00:56:28.769Z,97575.16
2017-09-18T00:58:56.246Z,97573.65
2017-09-18T01:01:23.704Z,97572.08
2017-09-18T01:03:51.211Z,97573.05
2017-09-18T01:06:18.692Z,97574.92
2017-09-18T01:08:46.233Z,97577.87
2017-09-18T01:11:13.736Z,97574.31
2017-09-18T01:13:41.239Z,97582.09
2017-09-18T01:16:08.749Z,97585.73
2017-09-18T01:18:36.546Z,97588.28
2017-09-18T01:21:04.463Z,97581.69
2017-09-18T01:23:32.052Z,97586.09
2017-09-18T01:26:07.341Z,97581.48
2017-09-18T01:28:34.809Z,97586.38
2017-09-18T01:31:02.299Z,97586.84
2017-09-18T01:33:29.820Z,97585.99
2017-09-18T01:35:58.024Z,97581.38
2017-09-18T01:38:25.521Z,97582.05
2017-09-18T01:40:52.996Z,97579.24
2017-09-18T01:43:20.529Z,97587.52
2017-09-18T01:45:48.250Z,97585.03
2017-09-18T01:48:15.757Z,97576.57
2017-09-18T01:50:43.210Z,97575.08
2017-09-18T01:53:10.706Z,97577.19
2017-09-18T01:55:38.159Z,97572.18
2017-09-18T01:58:06.808Z,97575.64
2017-09-18T02:00:34.296Z,97581.98
2017-09-18T02:03:02.318Z,97573.55
2017-09-18T02:05:29.824Z,97576.54
2017-09-18T02:07:57.631Z,97573.75
2017-09-18T02:10:25.180Z,97580.16
2017-09-18T02:12:52.656Z,97581.11
2017-09-18T02:15:20.112Z,97572.98
2017-09-18T02:17:47.600Z,97576.24
2017-09-18T02:20:15.086Z,97578.64
2017-09-18T02:22:42.670Z,97581.28
2017-09-18T02:25:10.214Z,97580.97
2017-09-18T02:27:37.835Z,97579.34
2017-09-18T02:30:05.324Z,97582.46
2017-09-18T02:32:32.779Z,97579.53
2017-09-18T02:35:00.305Z,97584.53
2017-09-18T02:37:27.974Z,97585.80
2017-09-18T02:39:57.217Z,97583.88
2017-09-18T02:42:24.732Z,97584.11
2017-09-18T02:44:52.208Z,97584.93
2017-09-18T02:47:19.692Z,97591.94
2017-09-18T02:49:47.161Z,97594.38
2017-09-18T02:52:14.661Z,97590.58
2017-09-18T02:54:42.121Z,97591.31
2017-09-18T02:57:09.606Z,97596.61
2017-09-18T02:59:37.081Z,97595.13
2017-09-18T03:02:04.556Z,97595.13
2017-09-18T03:04:32.223Z,97596.47
2017-09-18T03:09:44.966Z,97596.42
2017-09-18T03:12:12.791Z,97598.77
2017-09-18T03:17:51.683Z,97595.41
2017-09-18T03:20:21.342Z,97597.94
2017-09-18T03:22:48.853Z,97594.97
2017-09-18T03:25:16.323Z,97599.89
2017-09-18T03:27:44.169Z,97595.78
2017-09-18T03:30:11.777Z,97604.44
2017-09-18T03:32:39.255Z,97603.70
2017-09-18T03:35:06.729Z,97605.53
2017-09-18T03:37:34.249Z,97607.72
2017-09-18T03:40:07.640Z,97609.48
2017-09-18T03:42:35.213Z,97609.17
2017-09-18T03:45:03.025Z,97611.88
2017-09-18T03:47:31.220Z,97612.31
2017-09-18T03:49:58.745Z,97615.36
2017-09-18T03:52:26.250Z,97616.36
2017-09-18T03:54:59.973Z,97617.55
2017-09-18T03:57:31.674Z,97625.69
2017-09-18T04:00:00.466Z,97628.09
2017-09-18T04:02:27.981Z,97627.20
2017-09-18T04:05:07.239Z,97627.70
2017-09-18T04:07:35.001Z,97631.98
2017-09-18T04:10:02.535Z,97634.38
2017-09-18T14:25:31.629Z,97726.98
2017-09-18T14:27:59.280Z,97721.03
2017-09-18T14:30:26.770Z,97719.32
2017-09-18T14:32:54.269Z,97720.13
2017-09-18T14:35:21.903Z,97722.37
2017-09-18T14:37:50.155Z,97719.36
2017-09-18T14:40:17.616Z,97720.22
2017-09-18T14:42:45.199Z,97719.25
2017-09-18T14:45:12.696Z,97718.51
2017-09-18T14:47:40.308Z,97720.84
2017-09-18T14:50:07.818Z,97722.48
2017-09-18T14:52:35.459Z,97715.67
2017-09-18T14:55:02.916Z,97721.06
2017-09-18T14:57:30.688Z,97714.66
2017-09-18T14:59:58.436Z,97718.75
2017-09-18T15:02:26.296Z,97714.09
2017-09-18T15:04:54.402Z,97716.30
2017-09-18T15:07:21.892Z,97720.13
2017-09-18T15:09:49.617Z,97712.10
2017-09-18T15:12:17.380Z,97716.47
2017-09-18T15:14:44.976Z,97712.79
2017-09-18T15:17:12.670Z,97709.84
2017-09-18T15:19:40.195Z,97712.47
2017-09-18T15:22:07.817Z,97708.64
2017-09-18T15:24:35.315Z,97711.78
2017-09-18T15:27:02.801Z,97710.59
2017-09-18T15:29:30.282Z,97709.27
2017-09-18T15:31:57.903Z,97709.10
2017-09-18T15:34:25.594Z,97709.92
2017-09-18T15:36:53.101Z,97707.63
2017-09-18T15:39:20.576Z,97705.13
2017-09-18T15:41:48.086Z,97699.84
2017-09-18T15:44:15.837Z,97706.63
2017-09-18T15:46:43.312Z,97704.56
2017-09-18T15:49:11.801Z,97702.78
2017-09-18T15:51:39.302Z,97703.20
2017-09-18T15:54:06.771Z,97705.45
2017-09-18T15:56:34.260Z,97695.99
2017-09-18T15:59:01.711Z,97703.68
2017-09-18T16:01:29.215Z,97703.45
2017-09-18T16:03:56.672Z,97695.77
2017-09-18T16:06:24.139Z,97707.46
2017-09-18T16:08:51.623Z,97701.80
2017-09-18T16:11:19.078Z,97702.69
2017-09-18T16:13:46.576Z,97711.13
2017-09-18T16:16:14.686Z,97709.41
2017-09-18T16:18:42.137Z,97699.28
2017-09-18T16:21:09.624Z,97705.98
2017-09-18T16:23:37.564Z,97712.00
2017-09-18T16:26:05.078Z,97713.64
2017-09-18T16:28:32.570Z,97707.44
2017-09-18T16:31:00.260Z,97713.16
2017-09-18T16:33:27.755Z,97714.36
2017-09-18T16:35:55.205Z,97714.20
2017-09-18T16:38:22.711Z,97715.09
2017-09-18T16:40:50.178Z,97708.99
2017-09-18T16:43:17.640Z,97708.52
2017-09-18T16:45:45.162Z,97712.39
2017-09-18T16:48:12.811Z,97713.46
2017-09-18T16:50:40.304Z,97720.80
2017-09-18T16:53:07.762Z,97717.29
2017-09-18T16:55:35.461Z,97713.70
2017-09-18T16:58:02.959Z,97715.05
2017-09-18T17:00:30.549Z,97717.54
2017-09-18T17:02:58.025Z,97721.77
2017-09-18T17:05:25.481Z,97718.70
2017-09-18T17:07:52.992Z,97714.79
2017-09-18T17:10:20.817Z,97721.89
2017-09-18T17:12:48.291Z,97730.27
2017-09-18T17:15:15.788Z,97728.59
2017-09-18T17:17:43.310Z,97730.19
2017-09-18T17:20:10.840Z,97734.33
2017-09-18T17:22:38.348Z,97733.77
2017-09-18T17:25:05.838Z,97738.23
2017-09-18T17:27:33.301Z,97730.63
2017-09-18T17:30:00.805Z,97740.44
2017-09-18T17:32:28.294Z,97739.61
2017-09-18T17:34:55.760Z,97736.61
2017-09-18T17:37:23.248Z,97743.06
2017-09-18T17:39:50.716Z,97748.23
2017-09-18T17:42:18.414Z,97750.47
2017-09-18T17:44:45.895Z,97755.80
2017-09-18T17:47:13.386Z,97753.16
2017-09-18T17:49:40.874Z,97758.34
2017-09-18T17:52:08.344Z,97766.38
2017-09-18T17:54:35.843Z,97763.43
2017-09-18T17:57:03.344Z,97766.98
2017-09-18T17:59:30.853Z,97770.32
2017-09-18T18:01:58.339Z,97775.08
2017-09-18T18:04:25.860Z,97780.66
2017-09-18T18:06:53.329Z,97785.00
2017-09-18T18:09:20.815Z,97782.17
2017-09-18T18:11:48.329Z,97781.63
2017-09-18T18:14:15.808Z,97787.20
2017-09-18T18:16:43.342Z,97783.27
2017-09-18T18:19:10.853Z,97788.53
2017-09-18T18:21:38.373Z,97790.05
2017-09-18T18:24:05.848Z,97800.95
2017-09-18T18:26:33.373Z,97797.27
2017-09-18T18:29:00.858Z,97805.32
2017-09-18T18:31:28.355Z,97805.30
2017-09-18T18:34:01.254Z,97809.58
2017-09-18T18:36:29.011Z,97805.27
2017-09-18T18:38:57.178Z,97808.81
2017-09-18T18:41:24.900Z,97816.47
2017-09-18T18:43:53.492Z,97816.78
2017-09-18T18:46:20.973Z,97820.59
2017-09-18T18:48:48.711Z,97826.62
2017-09-18T18:51:16.246Z,97820.72
2017-09-18T18:53:43.748Z,97825.97
2017-09-18T18:56:11.269Z,97829.66
2017-09-18T18:58:38.740Z,97825.69
2017-09-18T19:01:06.239Z,97826.40
2017-09-18T19:03:33.727Z,97824.58
2017-09-18T19:06:01.454Z,97824.98
2017-09-18T19:08:29.020Z,97822.59
2017-09-18T19:10:57.003Z,97823.23
2017-09-18T19:13:24.527Z,97820.41
2017-09-18T19:15:52.143Z,97824.98
2017-09-18T19:18:19.666Z,97822.13
2017-09-18T19:20:47.694Z,97824.62
2017-09-18T19:23:15.195Z,97823.61
2017-09-18T19:25:42.834Z,97823.66
2017-09-18T19:28:10.307Z,97826.55
2017-09-18T19:30:37.808Z,97831.32
2017-09-18T19:33:05.292Z,97824.80
2017-09-18T19:35:32.850Z,97825.05
2017-09-18T19:38:00.363Z,97830.58
2017-09-18T19:40:28.180Z,97836.59
2017-09-18T19:42:56.111Z,97827.13
2017-09-18T19:45:23.717Z,97827.44
2017-09-18T19:47:51.910Z,97824.85
2017-09-18T19:50:20.072Z,97826.51
2017-09-18T19:52:48.530Z,97829.34
2017-09-18T19:55:17.100Z,97832.91
2017-09-18T19:57:45.173Z,97832.26
2017-09-18T20:00:12.967Z,97830.56
2017-09-18T20:02:40.771Z,97832.10
2017-09-18T20:05:08.989Z,97831.09
2017-09-18T20:07:41.614Z,97827.70
2017-09-18T20:10:10.679Z,97828.84
2017-09-18T20:12:47.369Z,97829.53
2017-09-18T20:15:16.295Z,97831.91
2017-09-18T20:17:46.229Z,97828.76
2017-09-18T20:20:22.366Z,97835.50
2017-09-18T20:22:54.609Z,97830.08
2017-09-18T20:25:23.464Z,97828.34
2017-09-18T20:27:53.034Z,97832.25
2017-09-18T20:30:21.732Z,97834.75
2017-09-18T20:32:49.712Z,97829.29
2017-09-18T20:35:17.575Z,97837.19
2017-09-18T20:37:46.563Z,97831.33
2017-09-18T20:40:16.880Z,97811.33
2017-09-18T20:42:45.996Z,97835.50
2017-09-18T20:45:14.477Z,97837.27
2017-09-18T20:47:42.841Z,97835.92
2017-09-18T20:50:11.423Z,97843.41
2017-09-18T20:52:40.865Z,97840.23
2017-09-18T20:55:09.786Z,97840.02
2017-09-18T20:57:38.593Z,97846.32
2017-09-18T21:00:06.251Z,97833.27
2017-09-18T21:02:35.319Z,97834.16
2017-09-18T21:05:04.993Z,97838.17
2017-09-18T21:07:34.237Z,97836.08
2017-09-18T21:10:01.887Z,97841.58
2017-09-18T21:12:33.218Z,97837.62
2017-09-18T21:15:02.246Z,97843.17
2017-09-18T21:17:30.443Z,97841.58
2017-09-18T21:19:59.274Z,97838.17
2017-09-18T21:22:27.678Z,97829.30
2017-09-18T21:24:55.591Z,97832.96
2017-09-18T21:27:24.276Z,97835.41
2017-09-18T21:29:53.378Z,97836.21
2017-09-18T21:32:22.061Z,97836.94
2017-09-18T21:34:50.321Z,97836.69
2017-09-18T21:37:18.143Z,97848.50
2017-09-18T21:39:47.016Z,97841.80
2017-09-18T21:42:15.052Z,97838.88
2017-09-18T21:44:43.161Z,97844.23
2017-09-18T21:47:11.438Z,97841.09
2017-09-18T21:49:40.845Z,97847.47
2017-09-18T21:52:09.027Z,97850.47
2017-09-18T21:54:38.517Z,97844.77
2017-09-18T21:57:06.554Z,97854.22
2017-09-18T21:59:34.592Z,97844.02
2017-09-18T22:02:02.589Z,97843.80
2017-09-18T22:04:31.597Z,97843.09
2017-09-18T22:07:00.208Z,97842.29
2017-09-18T22:09:28.477Z,97835.34
2017-09-18T22:12:15.426Z,97845.78
2017-09-18T22:14:43.544Z,97836.34
2017-09-18T22:17:13.189Z,97841.84
2017-09-18T22:19:40.758Z,97839.25
2017-09-18T22:22:09.551Z,97833.70
2017-09-18T22:24:37.621Z,97839.94
2017-09-18T22:27:05.938Z,97838.16
2017-09-18T22:29:36.495Z,97829.75
2017-09-18T22:32:06.393Z,97833.42
2017-09-18T22:34:39.450Z,97833.12
2017-09-18T22:37:10.161Z,97832.14
2017-09-18T22:39:41.364Z,97826.73
2017-09-18T22:42:10.039Z,97832.02
2017-09-18T22:44:38.469Z,97826.36
2017-09-18T22:47:07.130Z,97824.13
2017-09-18T22:49:36.161Z,97824.45
2017-09-18T22:52:08.630Z,97820.19
2017-09-18T22:54:38.792Z,97811.99
2017-09-18T22:57:07.993Z,97816.84
2017-09-18T22:59:37.417Z,97820.70
2017-09-18T23:02:07.735Z,97818.30
2017-09-18T23:04:37.548Z,97820.19
2017-09-18T23:07:07.487Z,97810.19
2017-09-18T23:09:36.654Z,97815.43
2017-09-18T23:12:05.092Z,97816.27
2017-09-18T23:14:32.684Z,97817.25
2017-09-18T23:17:01.126Z,97821.07
2017-09-18T23:19:30.117Z,97823.73
2017-09-18T23:21:59.214Z,97822.13
2017-09-18T23:24:28.542Z,97822.31
2017-09-18T23:26:58.910Z,97819.80
2017-09-18T23:29:32.746Z,97820.73
2017-09-18T23:32:06.853Z,97818.65
2017-09-18T23:34:35.368Z,97816.75
2017-09-18T23:37:04.340Z,97817.41
2017-09-18T23:39:33.726Z,97817.77
2017-09-18T23:42:08.679Z,97811.18
2017-09-18T23:44:39.234Z,97766.25
2017-09-18T23:47:08.484Z,97822.06
2017-09-18T23:49:37.764Z,97824.30
2017-09-18T23:52:11.342Z,97827.20
2017-09-18T23:54:41.562Z,97828.73
2017-09-18T23:57:09.880Z,97830.70
2017-09-18T23:59:39.421Z,97829.49
